sensor_id;sensor_type;location;lat;lon;timestamp;P1;durP1;ratioP1;P2;durP2;ratioP2
15293;SDS011;74171;52.534;13.436;2024-03-02T00:01:54;59.73;;;34.33;;
15293;SDS011;74171;52.534;13.436;2024-03-02T00:03:56;60.53;;;35.23;;
15293;SDS011;74171;52.534;13.436;2024-03-02T00:05:59;55.03;;;34.77;;
15293;SDS011;74171;52.534;13.436;2024-03-02T00:08:02;54.37;;;34.40;;
15293;SDS011;74171;52.534;13.436;2024-03-02T00:10:09;60.03;;;33.83;;
15293;SDS011;74171;52.534;13.436;2024-03-02T00:12:15;55.20;;;36.93;;
15293;SDS011;74171;52.534;13.436;2024-03-02T00:14:18;54.00;;;35.07;;
15293;SDS011;74171;52.534;13.436;2024-03-02T00:16:22;58.47;;;36.20;;
15293;SDS011;74171;52.534;13.436;2024-03-02T00:18:26;54.47;;;36.13;;
15293;SDS011;74171;52.534;13.436;2024-03-02T00:20:30;58.23;;;35.23;;
15293;SDS011;74171;52.534;13.436;2024-03-02T00:22:32;60.23;;;36.30;;
15293;SDS011;74171;52.534;13.436;2024-03-02T00:24:38;68.03;;;36.40;;
15293;SDS011;74171;52.534;13.436;2024-03-02T00:26:43;61.57;;;35.33;;
15293;SDS011;74171;52.534;13.436;2024-03-02T00:28:48;59.83;;;35.77;;
15293;SDS011;74171;52.534;13.436;2024-03-02T00:30:55;59.90;;;34.53;;
15293;SDS011;74171;52.534;13.436;2024-03-02T00:33:00;57.53;;;36.43;;
15293;SDS011;74171;52.534;13.436;2024-03-02T00:35:04;56.53;;;37.00;;
15293;SDS011;74171;52.534;13.436;2024-03-02T00:37:07;61.83;;;36.90;;
15293;SDS011;74171;52.534;13.436;2024-03-02T00:39:14;54.13;;;36.13;;
15293;SDS011;74171;52.534;13.436;2024-03-02T00:41:20;56.00;;;34.83;;
15293;SDS011;74171;52.534;13.436;2024-03-02T00:43:57;55.73;;;35.40;;
15293;SDS011;74171;52.534;13.436;2024-03-02T00:46:02;62.53;;;35.87;;
15293;SDS011;74171;52.534;13.436;2024-03-02T00:48:04;58.80;;;37.07;;
15293;SDS011;74171;52.534;13.436;2024-03-02T00:50:08;57.13;;;36.93;;
15293;SDS011;74171;52.534;13.436;2024-03-02T00:52:24;54.77;;;35.17;;
15293;SDS011;74171;52.534;13.436;2024-03-02T00:54:27;57.63;;;35.77;;
15293;SDS011;74171;52.534;13.436;2024-03-02T00:56:30;59.03;;;35.53;;
15293;SDS011;74171;52.534;13.436;2024-03-02T00:58:36;61.73;;;36.93;;
15293;SDS011;74171;52.534;13.436;2024-03-02T01:00:39;57.60;;;35.87;;
15293;SDS011;74171;52.534;13.436;2024-03-02T01:02:42;57.03;;;36.67;;
15293;SDS011;74171;52.534;13.436;2024-03-02T01:04:47;60.60;;;34.83;;
15293;SDS011;74171;52.534;13.436;2024-03-02T01:06:51;57.03;;;35.80;;
15293;SDS011;74171;52.534;13.436;2024-03-02T01:08:54;53.73;;;35.57;;
15293;SDS011;74171;52.534;13.436;2024-03-02T01:10:57;60.70;;;36.67;;
15293;SDS011;74171;52.534;13.436;2024-03-02T01:13:00;62.57;;;36.10;;
15293;SDS011;74171;52.534;13.436;2024-03-02T01:15:04;60.20;;;37.70;;
15293;SDS011;74171;52.534;13.436;2024-03-02T01:17:10;55.90;;;35.27;;
15293;SDS011;74171;52.534;13.436;2024-03-02T01:19:13;55.90;;;35.73;;
15293;SDS011;74171;52.534;13.436;2024-03-02T01:21:16;70.37;;;39.63;;
15293;SDS011;74171;52.534;13.436;2024-03-02T01:23:20;63.93;;;39.33;;
15293;SDS011;74171;52.534;13.436;2024-03-02T01:25:22;61.93;;;38.47;;
15293;SDS011;74171;52.534;13.436;2024-03-02T01:27:25;54.83;;;36.80;;
15293;SDS011;74171;52.534;13.436;2024-03-02T01:29:28;61.27;;;38.10;;
15293;SDS011;74171;52.534;13.436;2024-03-02T01:31:31;62.87;;;37.33;;
15293;SDS011;74171;52.534;13.436;2024-03-02T01:33:37;59.50;;;38.37;;
15293;SDS011;74171;52.534;13.436;2024-03-02T01:35:40;61.60;;;36.97;;
15293;SDS011;74171;52.534;13.436;2024-03-02T01:37:44;57.47;;;37.80;;
15293;SDS011;74171;52.534;13.436;2024-03-02T01:39:46;70.27;;;39.07;;
15293;SDS011;74171;52.534;13.436;2024-03-02T01:41:49;59.03;;;38.10;;
15293;SDS011;74171;52.534;13.436;2024-03-02T01:43:54;63.13;;;36.47;;
15293;SDS011;74171;52.534;13.436;2024-03-02T01:45:57;59.93;;;37.87;;
15293;SDS011;74171;52.534;13.436;2024-03-02T01:48:00;59.57;;;38.27;;
15293;SDS011;74171;52.534;13.436;2024-03-02T01:50:07;63.03;;;38.40;;
15293;SDS011;74171;52.534;13.436;2024-03-02T01:52:09;71.93;;;40.40;;
15293;SDS011;74171;52.534;13.436;2024-03-02T01:54:12;66.93;;;39.53;;
15293;SDS011;74171;52.534;13.436;2024-03-02T01:56:15;68.63;;;41.63;;
15293;SDS011;74171;52.534;13.436;2024-03-02T01:58:18;64.27;;;39.83;;
15293;SDS011;74171;52.534;13.436;2024-03-02T02:00:21;71.47;;;40.20;;
15293;SDS011;74171;52.534;13.436;2024-03-02T02:02:26;67.10;;;39.47;;
15293;SDS011;74171;52.534;13.436;2024-03-02T02:04:29;71.80;;;40.10;;
15293;SDS011;74171;52.534;13.436;2024-03-02T02:06:33;62.50;;;39.37;;
15293;SDS011;74171;52.534;13.436;2024-03-02T02:08:39;63.80;;;41.00;;
15293;SDS011;74171;52.534;13.436;2024-03-02T02:10:43;62.27;;;39.87;;
15293;SDS011;74171;52.534;13.436;2024-03-02T02:12:46;68.13;;;41.37;;
15293;SDS011;74171;52.534;13.436;2024-03-02T02:14:49;59.57;;;39.10;;
15293;SDS011;74171;52.534;13.436;2024-03-02T02:16:52;64.77;;;40.83;;
15293;SDS011;74171;52.534;13.436;2024-03-02T02:18:55;68.77;;;40.47;;
15293;SDS011;74171;52.534;13.436;2024-03-02T02:20:58;64.70;;;40.30;;
15293;SDS011;74171;52.534;13.436;2024-03-02T02:23:03;70.43;;;40.97;;
15293;SDS011;74171;52.534;13.436;2024-03-02T02:25:08;68.33;;;42.43;;
15293;SDS011;74171;52.534;13.436;2024-03-02T02:27:13;66.60;;;41.53;;
15293;SDS011;74171;52.534;13.436;2024-03-02T02:29:17;68.33;;;41.27;;
15293;SDS011;74171;52.534;13.436;2024-03-02T02:31:19;65.33;;;41.73;;
15293;SDS011;74171;52.534;13.436;2024-03-02T02:33:22;64.87;;;40.40;;
15293;SDS011;74171;52.534;13.436;2024-03-02T02:35:25;66.03;;;41.47;;
15293;SDS011;74171;52.534;13.436;2024-03-02T02:37:28;72.47;;;40.93;;
15293;SDS011;74171;52.534;13.436;2024-03-02T02:39:32;65.17;;;41.80;;
15293;SDS011;74171;52.534;13.436;2024-03-02T02:41:35;69.80;;;41.30;;
15293;SDS011;74171;52.534;13.436;2024-03-02T02:43:38;65.00;;;40.90;;
15293;SDS011;74171;52.534;13.436;2024-03-02T02:45:41;75.07;;;41.97;;
15293;SDS011;74171;52.534;13.436;2024-03-02T02:47:44;69.90;;;40.80;;
15293;SDS011;74171;52.534;13.436;2024-03-02T02:49:47;71.23;;;43.10;;
15293;SDS011;74171;52.534;13.436;2024-03-02T02:51:50;70.07;;;44.17;;
15293;SDS011;74171;52.534;13.436;2024-03-02T02:53:53;69.23;;;40.97;;
15293;SDS011;74171;52.534;13.436;2024-03-02T02:56:00;72.10;;;41.13;;
15293;SDS011;74171;52.534;13.436;2024-03-02T02:58:04;75.00;;;41.60;;
15293;SDS011;74171;52.534;13.436;2024-03-02T03:00:07;66.90;;;43.60;;
15293;SDS011;74171;52.534;13.436;2024-03-02T03:02:16;66.37;;;42.17;;
15293;SDS011;74171;52.534;13.436;2024-03-02T03:04:19;73.20;;;41.40;;
15293;SDS011;74171;52.534;13.436;2024-03-02T03:06:23;63.57;;;41.50;;
15293;SDS011;74171;52.534;13.436;2024-03-02T03:08:28;68.60;;;42.93;;
15293;SDS011;74171;52.534;13.436;2024-03-02T03:10:31;71.73;;;42.83;;
15293;SDS011;74171;52.534;13.436;2024-03-02T03:12:36;71.70;;;42.80;;
15293;SDS011;74171;52.534;13.436;2024-03-02T03:14:38;73.60;;;43.07;;
15293;SDS011;74171;52.534;13.436;2024-03-02T03:16:43;71.30;;;43.77;;
15293;SDS011;74171;52.534;13.436;2024-03-02T03:18:45;69.60;;;42.43;;
15293;SDS011;74171;52.534;13.436;2024-03-02T03:20:48;66.83;;;40.17;;
15293;SDS011;74171;52.534;13.436;2024-03-02T03:22:52;61.50;;;39.33;;
15293;SDS011;74171;52.534;13.436;2024-03-02T03:24:54;71.87;;;41.60;;
15293;SDS011;74171;52.534;13.436;2024-03-02T03:26:57;68.60;;;41.27;;
15293;SDS011;74171;52.534;13.436;2024-03-02T03:29:01;66.37;;;40.17;;
15293;SDS011;74171;52.534;13.436;2024-03-02T03:31:04;64.23;;;40.30;;
15293;SDS011;74171;52.534;13.436;2024-03-02T03:33:07;66.13;;;41.00;;
15293;SDS011;74171;52.534;13.436;2024-03-02T03:35:10;61.77;;;39.20;;
15293;SDS011;74171;52.534;13.436;2024-03-02T03:37:14;64.47;;;40.13;;
15293;SDS011;74171;52.534;13.436;2024-03-02T03:39:17;64.87;;;40.80;;
15293;SDS011;74171;52.534;13.436;2024-03-02T03:41:20;70.27;;;40.57;;
15293;SDS011;74171;52.534;13.436;2024-03-02T03:43:24;65.97;;;39.40;;
15293;SDS011;74171;52.534;13.436;2024-03-02T03:45:29;62.00;;;38.43;;
15293;SDS011;74171;52.534;13.436;2024-03-02T03:47:32;57.87;;;36.27;;
15293;SDS011;74171;52.534;13.436;2024-03-02T03:49:34;66.60;;;38.67;;
15293;SDS011;74171;52.534;13.436;2024-03-02T03:51:37;65.03;;;37.47;;
15293;SDS011;74171;52.534;13.436;2024-03-02T03:53:40;64.63;;;38.83;;
15293;SDS011;74171;52.534;13.436;2024-03-02T03:55:43;60.00;;;38.27;;
15293;SDS011;74171;52.534;13.436;2024-03-02T03:57:48;57.10;;;36.63;;
15293;SDS011;74171;52.534;13.436;2024-03-02T03:59:51;57.27;;;35.87;;
15293;SDS011;74171;52.534;13.436;2024-03-02T04:01:55;58.43;;;36.80;;
15293;SDS011;74171;52.534;13.436;2024-03-02T04:03:58;62.60;;;36.23;;
15293;SDS011;74171;52.534;13.436;2024-03-02T04:06:03;61.43;;;37.57;;
15293;SDS011;74171;52.534;13.436;2024-03-02T04:08:08;56.93;;;35.77;;
15293;SDS011;74171;52.534;13.436;2024-03-02T04:10:10;57.53;;;36.00;;
15293;SDS011;74171;52.534;13.436;2024-03-02T04:12:15;56.33;;;35.77;;
15293;SDS011;74171;52.534;13.436;2024-03-02T04:14:19;61.03;;;36.03;;
15293;SDS011;74171;52.534;13.436;2024-03-02T04:16:22;54.53;;;34.60;;
15293;SDS011;74171;52.534;13.436;2024-03-02T04:18:26;52.67;;;33.90;;
15293;SDS011;74171;52.534;13.436;2024-03-02T04:20:29;52.83;;;36.37;;
15293;SDS011;74171;52.534;13.436;2024-03-02T04:22:33;53.47;;;35.40;;
15293;SDS011;74171;52.534;13.436;2024-03-02T04:24:37;52.50;;;33.87;;
15293;SDS011;74171;52.534;13.436;2024-03-02T04:26:40;48.90;;;33.40;;
15293;SDS011;74171;52.534;13.436;2024-03-02T04:28:42;55.80;;;34.13;;
15293;SDS011;74171;52.534;13.436;2024-03-02T04:30:45;51.13;;;33.07;;
15293;SDS011;74171;52.534;13.436;2024-03-02T04:32:49;52.00;;;33.73;;
15293;SDS011;74171;52.534;13.436;2024-03-02T04:34:53;50.13;;;32.07;;
15293;SDS011;74171;52.534;13.436;2024-03-02T04:36:56;46.20;;;31.27;;
15293;SDS011;74171;52.534;13.436;2024-03-02T04:38:59;50.13;;;32.13;;
15293;SDS011;74171;52.534;13.436;2024-03-02T04:41:03;48.73;;;32.60;;
15293;SDS011;74171;52.534;13.436;2024-03-02T04:43:07;47.27;;;33.03;;
15293;SDS011;74171;52.534;13.436;2024-03-02T04:45:11;51.47;;;34.13;;
15293;SDS011;74171;52.534;13.436;2024-03-02T04:47:14;49.13;;;32.57;;
15293;SDS011;74171;52.534;13.436;2024-03-02T04:49:16;54.73;;;35.67;;
15293;SDS011;74171;52.534;13.436;2024-03-02T04:51:20;51.97;;;32.23;;
15293;SDS011;74171;52.534;13.436;2024-03-02T04:53:23;52.87;;;32.77;;
15293;SDS011;74171;52.534;13.436;2024-03-02T04:55:26;50.30;;;33.03;;
15293;SDS011;74171;52.534;13.436;2024-03-02T04:57:59;60.20;;;32.30;;
15293;SDS011;74171;52.534;13.436;2024-03-02T05:00:02;51.20;;;31.30;;
15293;SDS011;74171;52.534;13.436;2024-03-02T05:02:08;55.83;;;33.17;;
15293;SDS011;74171;52.534;13.436;2024-03-02T05:04:11;52.63;;;33.47;;
15293;SDS011;74171;52.534;13.436;2024-03-02T05:06:14;48.00;;;31.13;;
15293;SDS011;74171;52.534;13.436;2024-03-02T05:08:19;54.93;;;34.80;;
15293;SDS011;74171;52.534;13.436;2024-03-02T05:10:22;52.17;;;33.37;;
15293;SDS011;74171;52.534;13.436;2024-03-02T05:12:25;52.90;;;33.37;;
15293;SDS011;74171;52.534;13.436;2024-03-02T05:14:58;53.40;;;32.03;;
15293;SDS011;74171;52.534;13.436;2024-03-02T05:17:01;52.30;;;32.27;;
15293;SDS011;74171;52.534;13.436;2024-03-02T05:19:03;63.70;;;35.20;;
15293;SDS011;74171;52.534;13.436;2024-03-02T05:21:07;52.03;;;33.97;;
15293;SDS011;74171;52.534;13.436;2024-03-02T05:23:11;52.93;;;34.80;;
15293;SDS011;74171;52.534;13.436;2024-03-02T05:25:15;55.20;;;34.63;;
15293;SDS011;74171;52.534;13.436;2024-03-02T05:27:18;51.30;;;32.30;;
15293;SDS011;74171;52.534;13.436;2024-03-02T05:29:20;54.60;;;35.17;;
15293;SDS011;74171;52.534;13.436;2024-03-02T05:31:24;52.33;;;33.47;;
15293;SDS011;74171;52.534;13.436;2024-03-02T05:33:27;48.23;;;31.20;;
15293;SDS011;74171;52.534;13.436;2024-03-02T05:35:31;51.23;;;33.63;;
15293;SDS011;74171;52.534;13.436;2024-03-02T05:37:34;48.97;;;33.20;;
15293;SDS011;74171;52.534;13.436;2024-03-02T05:39:37;47.13;;;32.77;;
15293;SDS011;74171;52.534;13.436;2024-03-02T05:41:41;55.50;;;32.70;;
15293;SDS011;74171;52.534;13.436;2024-03-02T05:43:43;53.43;;;32.67;;
15293;SDS011;74171;52.534;13.436;2024-03-02T05:45:47;54.73;;;32.83;;
15293;SDS011;74171;52.534;13.436;2024-03-02T05:47:50;55.20;;;34.40;;
15293;SDS011;74171;52.534;13.436;2024-03-02T05:49:54;47.57;;;33.23;;
15293;SDS011;74171;52.534;13.436;2024-03-02T05:51:57;51.37;;;34.60;;
15293;SDS011;74171;52.534;13.436;2024-03-02T05:53:59;52.97;;;34.20;;
15293;SDS011;74171;52.534;13.436;2024-03-02T05:56:03;48.53;;;33.97;;
15293;SDS011;74171;52.534;13.436;2024-03-02T05:58:08;52.47;;;33.70;;
15293;SDS011;74171;52.534;13.436;2024-03-02T06:00:24;55.17;;;35.03;;
15293;SDS011;74171;52.534;13.436;2024-03-02T06:02:27;54.80;;;35.70;;
15293;SDS011;74171;52.534;13.436;2024-03-02T06:04:30;55.07;;;34.43;;
15293;SDS011;74171;52.534;13.436;2024-03-02T06:06:33;53.57;;;35.23;;
15293;SDS011;74171;52.534;13.436;2024-03-02T06:08:35;60.57;;;36.03;;
15293;SDS011;74171;52.534;13.436;2024-03-02T06:10:40;51.87;;;35.17;;
15293;SDS011;74171;52.534;13.436;2024-03-02T06:12:43;62.00;;;36.23;;
15293;SDS011;74171;52.534;13.436;2024-03-02T06:14:47;55.07;;;35.47;;
15293;SDS011;74171;52.534;13.436;2024-03-02T06:16:50;58.53;;;34.87;;
15293;SDS011;74171;52.534;13.436;2024-03-02T06:18:53;58.23;;;36.10;;
15293;SDS011;74171;52.534;13.436;2024-03-02T06:20:57;67.47;;;37.13;;
15293;SDS011;74171;52.534;13.436;2024-03-02T06:22:59;55.73;;;34.47;;
15293;SDS011;74171;52.534;13.436;2024-03-02T06:25:02;55.37;;;34.17;;
15293;SDS011;74171;52.534;13.436;2024-03-02T06:27:06;51.03;;;33.83;;
15293;SDS011;74171;52.534;13.436;2024-03-02T06:29:09;51.00;;;32.87;;
15293;SDS011;74171;52.534;13.436;2024-03-02T06:31:13;54.10;;;35.73;;
15293;SDS011;74171;52.534;13.436;2024-03-02T06:33:16;59.67;;;36.53;;
15293;SDS011;74171;52.534;13.436;2024-03-02T06:35:19;57.47;;;36.23;;
15293;SDS011;74171;52.534;13.436;2024-03-02T06:37:25;55.40;;;35.03;;
15293;SDS011;74171;52.534;13.436;2024-03-02T06:39:27;65.13;;;35.37;;
15293;SDS011;74171;52.534;13.436;2024-03-02T06:41:30;59.93;;;35.10;;
15293;SDS011;74171;52.534;13.436;2024-03-02T06:43:39;55.77;;;35.47;;
15293;SDS011;74171;52.534;13.436;2024-03-02T06:45:42;59.80;;;36.83;;
15293;SDS011;74171;52.534;13.436;2024-03-02T06:47:46;56.63;;;35.20;;
15293;SDS011;74171;52.534;13.436;2024-03-02T06:49:48;60.47;;;36.30;;
15293;SDS011;74171;52.534;13.436;2024-03-02T06:51:54;62.43;;;36.40;;
15293;SDS011;74171;52.534;13.436;2024-03-02T06:54:00;54.30;;;35.33;;
15293;SDS011;74171;52.534;13.436;2024-03-02T06:56:03;57.00;;;36.83;;
15293;SDS011;74171;52.534;13.436;2024-03-02T06:58:07;59.33;;;35.97;;
15293;SDS011;74171;52.534;13.436;2024-03-02T07:00:13;58.80;;;35.03;;
15293;SDS011;74171;52.534;13.436;2024-03-02T07:02:21;54.30;;;34.50;;
15293;SDS011;74171;52.534;13.436;2024-03-02T07:04:25;57.60;;;35.80;;
15293;SDS011;74171;52.534;13.436;2024-03-02T07:06:29;55.90;;;34.87;;
15293;SDS011;74171;52.534;13.436;2024-03-02T07:08:34;55.63;;;35.70;;
15293;SDS011;74171;52.534;13.436;2024-03-02T07:10:40;53.60;;;34.30;;
15293;SDS011;74171;52.534;13.436;2024-03-02T07:12:43;58.80;;;36.03;;
15293;SDS011;74171;52.534;13.436;2024-03-02T07:14:46;57.93;;;36.50;;
15293;SDS011;74171;52.534;13.436;2024-03-02T07:17:12;62.53;;;35.67;;
15293;SDS011;74171;52.534;13.436;2024-03-02T07:19:16;57.93;;;36.90;;
15293;SDS011;74171;52.534;13.436;2024-03-02T07:21:21;57.47;;;34.80;;
15293;SDS011;74171;52.534;13.436;2024-03-02T07:23:24;55.70;;;35.70;;
15293;SDS011;74171;52.534;13.436;2024-03-02T07:25:28;58.83;;;37.27;;
15293;SDS011;74171;52.534;13.436;2024-03-02T07:27:36;57.17;;;36.40;;
15293;SDS011;74171;52.534;13.436;2024-03-02T07:29:39;55.40;;;35.40;;
15293;SDS011;74171;52.534;13.436;2024-03-02T07:31:42;59.23;;;36.37;;
15293;SDS011;74171;52.534;13.436;2024-03-02T07:33:45;57.87;;;36.60;;
15293;SDS011;74171;52.534;13.436;2024-03-02T07:35:51;54.83;;;36.10;;
15293;SDS011;74171;52.534;13.436;2024-03-02T07:37:56;55.43;;;36.47;;
15293;SDS011;74171;52.534;13.436;2024-03-02T07:39:59;58.43;;;36.93;;
15293;SDS011;74171;52.534;13.436;2024-03-02T07:42:02;59.73;;;35.67;;
15293;SDS011;74171;52.534;13.436;2024-03-02T07:44:04;58.23;;;36.03;;
15293;SDS011;74171;52.534;13.436;2024-03-02T07:46:08;58.63;;;37.37;;
15293;SDS011;74171;52.534;13.436;2024-03-02T07:48:11;62.57;;;37.13;;
15293;SDS011;74171;52.534;13.436;2024-03-02T07:50:14;55.80;;;36.67;;
15293;SDS011;74171;52.534;13.436;2024-03-02T07:52:17;59.27;;;35.70;;
15293;SDS011;74171;52.534;13.436;2024-03-02T07:54:21;57.27;;;33.80;;
15293;SDS011;74171;52.534;13.436;2024-03-02T07:56:24;60.33;;;36.10;;
15293;SDS011;74171;52.534;13.436;2024-03-02T07:58:26;56.93;;;36.07;;
15293;SDS011;74171;52.534;13.436;2024-03-02T08:00:29;54.07;;;34.10;;
15293;SDS011;74171;52.534;13.436;2024-03-02T08:02:32;59.03;;;35.27;;
15293;SDS011;74171;52.534;13.436;2024-03-02T08:04:35;54.97;;;34.27;;
15293;SDS011;74171;52.534;13.436;2024-03-02T08:06:39;52.53;;;34.03;;
15293;SDS011;74171;52.534;13.436;2024-03-02T08:08:43;58.30;;;34.73;;
15293;SDS011;74171;52.534;13.436;2024-03-02T08:10:47;54.40;;;32.50;;
15293;SDS011;74171;52.534;13.436;2024-03-02T08:12:50;53.20;;;34.60;;
15293;SDS011;74171;52.534;13.436;2024-03-02T08:14:53;57.73;;;34.80;;
15293;SDS011;74171;52.534;13.436;2024-03-02T08:16:55;59.83;;;35.27;;
15293;SDS011;74171;52.534;13.436;2024-03-02T08:18:58;57.27;;;34.97;;
15293;SDS011;74171;52.534;13.436;2024-03-02T08:21:02;53.40;;;36.17;;
15293;SDS011;74171;52.534;13.436;2024-03-02T08:23:05;59.50;;;35.53;;
15293;SDS011;74171;52.534;13.436;2024-03-02T08:25:09;54.23;;;34.83;;
15293;SDS011;74171;52.534;13.436;2024-03-02T08:27:13;57.37;;;36.40;;
15293;SDS011;74171;52.534;13.436;2024-03-02T08:29:16;55.83;;;35.20;;
15293;SDS011;74171;52.534;13.436;2024-03-02T08:31:19;56.87;;;34.03;;
15293;SDS011;74171;52.534;13.436;2024-03-02T08:33:22;50.30;;;32.57;;
15293;SDS011;74171;52.534;13.436;2024-03-02T08:35:24;57.70;;;35.47;;
15293;SDS011;74171;52.534;13.436;2024-03-02T08:37:27;53.63;;;34.20;;
15293;SDS011;74171;52.534;13.436;2024-03-02T08:39:30;54.63;;;34.00;;
15293;SDS011;74171;52.534;13.436;2024-03-02T08:41:33;57.17;;;35.37;;
15293;SDS011;74171;52.534;13.436;2024-03-02T08:43:37;61.10;;;35.07;;
15293;SDS011;74171;52.534;13.436;2024-03-02T08:45:41;56.37;;;34.57;;
15293;SDS011;74171;52.534;13.436;2024-03-02T08:47:43;48.27;;;32.83;;
15293;SDS011;74171;52.534;13.436;2024-03-02T08:49:46;54.57;;;34.03;;
15293;SDS011;74171;52.534;13.436;2024-03-02T08:51:49;50.80;;;32.97;;
15293;SDS011;74171;52.534;13.436;2024-03-02T08:53:56;49.40;;;33.70;;
15293;SDS011;74171;52.534;13.436;2024-03-02T08:55:59;48.20;;;31.63;;
15293;SDS011;74171;52.534;13.436;2024-03-02T08:58:03;49.50;;;31.83;;
15293;SDS011;74171;52.534;13.436;2024-03-02T09:00:08;50.10;;;31.93;;
15293;SDS011;74171;52.534;13.436;2024-03-02T09:02:11;51.17;;;32.47;;
15293;SDS011;74171;52.534;13.436;2024-03-02T09:04:14;52.80;;;31.83;;
15293;SDS011;74171;52.534;13.436;2024-03-02T09:06:24;50.33;;;31.43;;
15293;SDS011;74171;52.534;13.436;2024-03-02T09:08:29;45.33;;;31.40;;
15293;SDS011;74171;52.534;13.436;2024-03-02T09:10:31;51.13;;;30.93;;
15293;SDS011;74171;52.534;13.436;2024-03-02T09:12:33;49.77;;;31.33;;
15293;SDS011;74171;52.534;13.436;2024-03-02T09:14:36;50.67;;;31.53;;
15293;SDS011;74171;52.534;13.436;2024-03-02T09:16:44;54.83;;;32.50;;
15293;SDS011;74171;52.534;13.436;2024-03-02T09:18:47;51.37;;;32.30;;
15293;SDS011;74171;52.534;13.436;2024-03-02T09:20:50;57.43;;;33.73;;
15293;SDS011;74171;52.534;13.436;2024-03-02T09:22:54;50.10;;;31.67;;
15293;SDS011;74171;52.534;13.436;2024-03-02T09:24:57;53.30;;;32.40;;
15293;SDS011;74171;52.534;13.436;2024-03-02T09:27:00;50.60;;;33.40;;
15293;SDS011;74171;52.534;13.436;2024-03-02T09:29:03;51.23;;;32.57;;
15293;SDS011;74171;52.534;13.436;2024-03-02T09:31:05;51.47;;;32.77;;
15293;SDS011;74171;52.534;13.436;2024-03-02T09:33:11;51.30;;;33.77;;
15293;SDS011;74171;52.534;13.436;2024-03-02T09:35:17;46.90;;;30.87;;
15293;SDS011;74171;52.534;13.436;2024-03-02T09:37:24;48.70;;;32.60;;
15293;SDS011;74171;52.534;13.436;2024-03-02T09:39:28;58.27;;;30.87;;
15293;SDS011;74171;52.534;13.436;2024-03-02T09:41:32;50.77;;;30.80;;
15293;SDS011;74171;52.534;13.436;2024-03-02T09:43:35;44.00;;;29.40;;
15293;SDS011;74171;52.534;13.436;2024-03-02T09:45:38;44.23;;;30.23;;
15293;SDS011;74171;52.534;13.436;2024-03-02T09:47:41;46.70;;;31.30;;
15293;SDS011;74171;52.534;13.436;2024-03-02T09:49:46;50.10;;;31.43;;
15293;SDS011;74171;52.534;13.436;2024-03-02T09:51:49;44.03;;;29.47;;
15293;SDS011;74171;52.534;13.436;2024-03-02T09:53:52;46.90;;;28.50;;
15293;SDS011;74171;52.534;13.436;2024-03-02T09:56:03;48.13;;;28.90;;
15293;SDS011;74171;52.534;13.436;2024-03-02T09:58:06;43.07;;;27.87;;
15293;SDS011;74171;52.534;13.436;2024-03-02T10:00:10;46.67;;;30.10;;
15293;SDS011;74171;52.534;13.436;2024-03-02T10:02:16;48.93;;;29.33;;
15293;SDS011;74171;52.534;13.436;2024-03-02T10:04:22;43.17;;;27.67;;
15293;SDS011;74171;52.534;13.436;2024-03-02T10:06:26;43.63;;;28.13;;
15293;SDS011;74171;52.534;13.436;2024-03-02T10:08:35;40.87;;;27.70;;
15293;SDS011;74171;52.534;13.436;2024-03-02T10:10:45;48.33;;;31.57;;
15293;SDS011;74171;52.534;13.436;2024-03-02T10:12:48;44.80;;;30.33;;
15293;SDS011;74171;52.534;13.436;2024-03-02T10:14:52;41.07;;;26.90;;
15293;SDS011;74171;52.534;13.436;2024-03-02T10:17:06;40.27;;;25.20;;
15293;SDS011;74171;52.534;13.436;2024-03-02T10:19:16;41.27;;;25.83;;
15293;SDS011;74171;52.534;13.436;2024-03-02T10:21:19;39.00;;;24.57;;
15293;SDS011;74171;52.534;13.436;2024-03-02T10:23:23;39.43;;;27.00;;
15293;SDS011;74171;52.534;13.436;2024-03-02T10:25:30;40.73;;;27.57;;
15293;SDS011;74171;52.534;13.436;2024-03-02T10:27:48;43.13;;;26.57;;
15293;SDS011;74171;52.534;13.436;2024-03-02T10:29:52;40.57;;;26.93;;
15293;SDS011;74171;52.534;13.436;2024-03-02T10:31:55;37.30;;;25.00;;
15293;SDS011;74171;52.534;13.436;2024-03-02T10:34:00;37.73;;;24.17;;
15293;SDS011;74171;52.534;13.436;2024-03-02T10:36:03;36.60;;;23.87;;
15293;SDS011;74171;52.534;13.436;2024-03-02T10:38:07;41.33;;;25.83;;
15293;SDS011;74171;52.534;13.436;2024-03-02T10:40:12;42.93;;;26.27;;
15293;SDS011;74171;52.534;13.436;2024-03-02T10:42:16;34.30;;;23.83;;
15293;SDS011;74171;52.534;13.436;2024-03-02T10:44:22;41.33;;;23.90;;
15293;SDS011;74171;52.534;13.436;2024-03-02T10:46:26;37.37;;;22.73;;
15293;SDS011;74171;52.534;13.436;2024-03-02T10:48:30;34.60;;;21.53;;
15293;SDS011;74171;52.534;13.436;2024-03-02T10:50:34;32.00;;;22.33;;
15293;SDS011;74171;52.534;13.436;2024-03-02T10:52:37;38.20;;;23.13;;
15293;SDS011;74171;52.534;13.436;2024-03-02T10:54:41;39.37;;;23.47;;
15293;SDS011;74171;52.534;13.436;2024-03-02T10:56:47;26.67;;;19.27;;
15293;SDS011;74171;52.534;13.436;2024-03-02T10:58:50;36.10;;;20.83;;
15293;SDS011;74171;52.534;13.436;2024-03-02T11:00:52;35.93;;;20.03;;
15293;SDS011;74171;52.534;13.436;2024-03-02T11:02:56;33.30;;;19.37;;
15293;SDS011;74171;52.534;13.436;2024-03-02T11:04:59;33.87;;;19.93;;
15293;SDS011;74171;52.534;13.436;2024-03-02T11:07:04;30.70;;;20.40;;
15293;SDS011;74171;52.534;13.436;2024-03-02T11:09:07;30.93;;;20.07;;
15293;SDS011;74171;52.534;13.436;2024-03-02T11:11:12;32.70;;;19.13;;
15293;SDS011;74171;52.534;13.436;2024-03-02T11:13:20;34.97;;;20.00;;
15293;SDS011;74171;52.534;13.436;2024-03-02T11:15:25;25.27;;;18.60;;
15293;SDS011;74171;52.534;13.436;2024-03-02T11:17:29;29.67;;;17.73;;
15293;SDS011;74171;52.534;13.436;2024-03-02T11:19:33;27.10;;;17.23;;
15293;SDS011;74171;52.534;13.436;2024-03-02T11:21:38;28.77;;;18.50;;
15293;SDS011;74171;52.534;13.436;2024-03-02T11:23:41;30.40;;;19.33;;
15293;SDS011;74171;52.534;13.436;2024-03-02T11:25:44;30.23;;;18.53;;
15293;SDS011;74171;52.534;13.436;2024-03-02T11:28:04;26.73;;;17.63;;
15293;SDS011;74171;52.534;13.436;2024-03-02T11:30:10;26.27;;;17.63;;
15293;SDS011;74171;52.534;13.436;2024-03-02T11:32:54;23.57;;;16.67;;
15293;SDS011;74171;52.534;13.436;2024-03-02T11:34:57;24.80;;;16.97;;
15293;SDS011;74171;52.534;13.436;2024-03-02T11:37:00;26.40;;;18.03;;
15293;SDS011;74171;52.534;13.436;2024-03-02T11:39:04;24.30;;;16.73;;
15293;SDS011;74171;52.534;13.436;2024-03-02T11:41:07;24.67;;;17.33;;
15293;SDS011;74171;52.534;13.436;2024-03-02T11:43:10;27.97;;;17.73;;
15293;SDS011;74171;52.534;13.436;2024-03-02T11:45:14;27.13;;;17.10;;
15293;SDS011;74171;52.534;13.436;2024-03-02T11:47:18;23.57;;;16.57;;
15293;SDS011;74171;52.534;13.436;2024-03-02T11:49:34;28.53;;;18.13;;
15293;SDS011;74171;52.534;13.436;2024-03-02T11:51:39;27.30;;;18.43;;
15293;SDS011;74171;52.534;13.436;2024-03-02T11:53:53;24.97;;;17.40;;
15293;SDS011;74171;52.534;13.436;2024-03-02T11:55:57;21.53;;;16.07;;
15293;SDS011;74171;52.534;13.436;2024-03-02T11:57:59;24.70;;;16.90;;